Time;durP1;ratioP1;P1;durP2;ratioP2;P2;SDS_P1;SDS_P2;PMS_P1;PMS_P2;Temp;Humidity;BMP_temperature;BMP_pressure;BME280_temperature;BME280_humidity;BME280_pressure;Samples;Min_cycle;Max_cycle;Signal;HPM_P1;HPM_P2
2023/01/11 00:00:29;;;;;;;4.10;0.30;;;;;;;4.69;76.52;100979.75;4955072;28;20050;-72
2023/01/11 00:02:57;;;;;;;2.97;0.30;;;;;;;4.66;76.57;100982.31;4958440;28;20661;-72
2023/01/11 00:05:24;;;;;;;8.00;0.50;;;;;;;4.69;76.29;100971.13;4956635;28;20062;-72
2023/01/11 00:07:51;;;;;;;2.08;0.47;;;;;;;4.71;76.47;100972.03;4953175;28;20046;-73
2023/01/11 00:10:18;;;;;;;9.50;0.50;;;;;;;4.66;76.22;100959.03;4958375;28;20572;-73
2023/01/11 00:12:45;;;;;;;2.03;0.30;;;;;;;4.71;76.33;100959.94;4953690;28;20054;-73
2023/01/11 00:15:14;;;;;;;6.13;0.35;;;;;;;4.72;76.58;100959.13;4958128;28;20049;-73
2023/01/11 00:17:41;;;;;;;7.10;0.40;;;;;;;4.72;76.39;100959.13;4959481;28;20047;-73
2023/01/11 00:20:09;;;;;;;0.55;0.30;;;;;;;4.72;76.30;100955.63;4954293;28;20062;-73
2023/01/11 00:22:36;;;;;;;2.78;0.30;;;;;;;4.72;76.33;100951.34;4956680;28;20047;-73
2023/01/11 00:25:03;;;;;;;1.48;0.28;;;;;;;4.73;76.23;100960.84;4954798;28;20053;-73
2023/01/11 00:27:30;;;;;;;0.77;0.65;;;;;;;4.74;76.46;100953.94;4951563;28;20055;-72
2023/01/11 00:29:57;;;;;;;2.25;0.30;;;;;;;4.75;76.39;100955.66;4955128;28;20075;-73
2023/01/11 00:32:26;;;;;;;0.98;0.30;;;;;;;4.76;76.29;100956.53;4957215;28;20064;-73
2023/01/11 00:34:53;;;;;;;2.90;0.30;;;;;;;4.77;76.39;100950.50;4950577;28;20098;-73
2023/01/11 00:37:20;;;;;;;2.33;0.25;;;;;;;4.76;76.39;100948.78;4957043;28;20065;-73
2023/01/11 00:39:47;;;;;;;2.58;1.17;;;;;;;4.77;76.42;100945.34;4955223;28;20687;-73
2023/01/11 00:48:00;;;;;;;2.15;0.22;;;;;;;4.76;76.50;100939.28;4958698;28;20130;-73
2023/01/11 00:50:30;;;;;;;7.05;0.30;;;;;;;4.73;76.41;100927.19;4956010;28;20061;-73
2023/01/11 00:52:57;;;;;;;9.63;0.73;;;;;;;4.77;76.41;100929.81;4960758;28;20058;-73
2023/01/11 00:55:24;;;;;;;10.25;0.75;;;;;;;4.69;76.43;100914.22;4959919;28;20357;-73
2023/01/11 00:57:51;;;;;;;5.03;0.70;;;;;;;4.77;76.55;100919.44;4958028;28;20043;-74
2023/01/11 01:00:19;;;;;;;3.05;0.32;;;;;;;4.77;76.48;100928.06;4958663;28;20062;-73
2023/01/11 01:02:48;;;;;;;2.20;0.20;;;;;;;4.70;76.30;100913.38;4959614;28;20613;-73
2023/01/11 01:05:15;;;;;;;5.20;0.30;;;;;;;4.65;76.33;100900.38;4958531;28;20058;-73
2023/01/11 01:07:43;;;;;;;0.20;0.20;;;;;;;4.76;76.04;100909.97;4961462;28;20043;-72
2023/01/11 01:10:12;;;;;;;4.07;0.73;;;;;;;4.78;76.27;100911.72;4957858;28;20055;-72
2023/01/11 01:15:23;;;;;;;6.65;0.40;;;;;;;4.79;76.32;100915.16;4957103;28;20197;-74
2023/01/11 01:17:52;;;;;;;3.03;0.30;;;;;;;4.79;76.33;100917.75;4960906;28;20047;-72
2023/01/11 01:20:20;;;;;;;3.13;0.35;;;;;;;4.75;76.38;100911.66;4958418;28;20055;-73
2023/01/11 01:22:46;;;;;;;8.02;0.35;;;;;;;4.74;76.71;100908.22;4959914;28;20687;-73
2023/01/11 01:25:13;;;;;;;6.20;0.40;;;;;;;4.79;76.45;100912.56;4956709;28;20059;-72
2023/01/11 01:27:40;;;;;;;3.28;0.40;;;;;;;4.79;76.29;100899.63;4960067;28;20050;-72
2023/01/11 01:30:08;;;;;;;1.73;0.40;;;;;;;4.67;76.38;100882.31;4956488;28;20050;-72
2023/01/11 01:32:35;;;;;;;6.35;0.55;;;;;;;4.80;76.33;100898.75;4958918;28;20039;-72
2023/01/11 01:35:04;;;;;;;3.80;0.35;;;;;;;4.80;76.30;100898.75;4956212;28;20040;-72
2023/01/11 01:37:30;;;;;;;5.22;0.40;;;;;;;4.78;76.31;100897.88;4960731;28;20043;-72
2023/01/11 01:39:57;;;;;;;7.65;0.65;;;;;;;4.80;76.43;100904.81;4957876;28;20694;-72
2023/01/11 01:42:25;;;;;;;0.55;0.20;;;;;;;4.81;76.41;100895.31;4959050;28;20035;-72
2023/01/11 01:44:58;;;;;;;6.93;1.00;;;;;;;4.81;76.37;100897.91;4959959;28;20050;-72
2023/01/11 01:47:31;;;;;;;4.13;0.40;;;;;;;4.71;76.64;100884.91;4958286;28;20078;-72
2023/01/11 01:50:01;;;;;;;2.05;0.30;;;;;;;4.79;76.36;100884.97;4954957;28;20047;-72
2023/01/11 01:52:31;;;;;;;7.50;0.60;;;;;;;4.80;76.49;100885.81;4951102;28;20051;-73
2023/01/11 01:55:02;;;;;;;3.17;0.40;;;;;;;4.69;76.52;100865.91;4959054;28;20530;-73
2023/01/11 01:57:32;;;;;;;7.38;0.45;;;;;;;4.79;76.66;100879.78;4958940;28;20054;-73
2023/01/11 02:00:02;;;;;;;5.00;0.50;;;;;;;4.80;76.49;100883.25;4957458;28;20051;-72
2023/01/11 02:02:29;;;;;;;2.70;0.52;;;;;;;4.79;76.45;100866.84;4956989;28;20047;-73
2023/01/11 02:04:58;;;;;;;6.72;0.88;;;;;;;4.79;76.38;100871.16;4957826;28;20062;-72
2023/01/11 02:07:30;;;;;;;3.40;0.70;;;;;;;4.79;76.73;100858.22;4962174;28;20051;-72
2023/01/11 02:10:03;;;;;;;3.05;0.70;;;;;;;4.80;76.77;100847.00;4958362;28;20051;-72
2023/01/11 02:12:34;;;;;;;7.05;1.27;;;;;;;4.80;76.52;100854.78;4956385;28;20050;-72
2023/01/11 02:15:02;;;;;;;8.60;0.80;;;;;;;4.80;76.42;100852.19;4957836;28;20042;-72
2023/01/11 02:17:29;;;;;;;5.40;0.90;;;;;;;4.79;76.64;100840.13;4954339;28;20393;-72
2023/01/11 02:20:07;;;;;;;2.17;0.80;;;;;;;4.80;76.63;100847.88;4960512;28;20495;-73
2023/01/11 02:23:15;;;;;;;3.30;1.02;;;;;;;4.82;76.52;100841.00;4962663;28;20049;-72
2023/01/11 02:26:08;;;;;;;6.32;0.75;;;;;;;4.83;76.50;100842.72;4949370;28;20055;-73
2023/01/11 02:28:41;;;;;;;3.65;0.63;;;;;;;4.77;76.55;100826.28;4961245;28;21100;-73
2023/01/11 02:31:16;;;;;;;10.25;2.25;;;;;;;4.84;76.45;100833.22;4962102;28;20042;-72
2023/01/11 02:33:50;;;;;;;1.75;0.65;;;;;;;4.84;76.34;100840.97;4961316;28;20683;-72
2023/01/11 02:36:26;;;;;;;5.25;0.80;;;;;;;4.83;76.09;100827.19;4963891;28;20049;-73
2023/01/11 02:38:57;;;;;;;2.30;0.60;;;;;;;4.82;76.25;100825.47;4960928;28;20043;-73
2023/01/11 02:45:00;;;;;;;4.78;0.80;;;;;;;4.83;76.38;100821.16;4955924;28;20054;-73
2023/01/11 02:47:17;;;;;;;4.90;0.73;;;;;;;4.82;76.02;100807.34;4961578;28;20197;-72
2023/01/11 02:49:50;;;;;;;8.32;1.05;;;;;;;4.84;76.04;100812.50;4961583;28;20047;-73
2023/01/11 02:52:23;;;;;;;7.07;0.82;;;;;;;4.84;76.35;100802.16;4962442;28;20038;-73
2023/01/11 02:54:57;;;;;;;7.40;1.15;;;;;;;4.85;76.30;100806.50;4962443;28;20047;-74
2023/01/11 02:57:27;;;;;;;11.13;1.13;;;;;;;4.84;76.35;100797.88;4962612;28;20047;-73
2023/01/11 02:59:57;;;;;;;9.45;1.65;;;;;;;4.84;76.34;100786.63;4960923;28;20087;-71
2023/01/11 03:02:24;;;;;;;7.13;0.80;;;;;;;4.84;76.35;100784.94;4959956;28;20082;-72
2023/01/11 03:04:51;;;;;;;7.88;0.82;;;;;;;4.84;76.24;100791.81;4962234;28;20057;-73
2023/01/11 03:07:34;;;;;;;9.27;1.33;;;;;;;4.84;76.36;100779.75;4961430;28;20054;-72
2023/01/11 03:10:12;;;;;;;5.90;0.90;;;;;;;4.85;76.33;100778.88;4960417;28;20050;-72
2023/01/11 03:12:53;;;;;;;11.73;2.17;;;;;;;4.81;76.27;100766.81;4960227;28;20043;-73
2023/01/11 03:15:54;;;;;;;11.23;2.35;;;;;;;4.86;76.29;100749.53;4960801;28;20055;-73
2023/01/11 03:18:31;;;;;;;14.00;2.08;;;;;;;4.85;76.45;100757.31;4959586;28;20054;-73
2023/01/11 03:21:08;;;;;;;5.22;1.15;;;;;;;4.85;76.23;100754.72;4955763;28;20062;-72
2023/01/11 03:23:44;;;;;;;13.65;1.00;;;;;;;4.84;76.21;100742.63;4960743;28;20051;-73
2023/01/11 03:26:19;;;;;;;10.60;1.52;;;;;;;4.85;76.21;100739.19;4959176;28;20055;-73
2023/01/11 03:28:55;;;;;;;8.18;0.90;;;;;;;4.85;76.09;100728.84;4959327;28;20050;-73
2023/01/11 03:31:30;;;;;;;7.60;1.25;;;;;;;4.83;76.04;100723.66;4960937;28;20043;-73
2023/01/11 03:34:03;;;;;;;5.65;0.73;;;;;;;4.83;76.05;100722.78;4965141;28;20183;-73
2023/01/11 03:36:37;;;;;;;6.30;0.70;;;;;;;4.84;76.43;100719.34;4964264;28;20054;-72
2023/01/11 03:39:10;;;;;;;10.32;0.73;;;;;;;4.83;75.93;100712.44;4961190;28;20043;-73
2023/01/11 03:41:41;;;;;;;6.78;0.63;;;;;;;4.82;75.81;100708.13;4963406;28;20051;-73
2023/01/11 03:44:10;;;;;;;6.95;0.57;;;;;;;4.80;75.75;100697.75;4960926;28;20066;-72
2023/01/11 03:46:43;;;;;;;6.85;0.75;;;;;;;4.80;75.72;100702.09;4963662;28;20497;-72
2023/01/11 03:49:14;;;;;;;5.80;1.23;;;;;;;4.80;75.80;100697.75;4955886;28;20051;-73
2023/01/11 03:51:43;;;;;;;4.20;0.43;;;;;;;4.79;75.44;100698.63;4963190;28;20042;-73
2023/01/11 03:54:13;;;;;;;9.55;1.13;;;;;;;4.78;75.67;100690.84;4960296;28;20042;-73
2023/01/11 03:56:47;;;;;;;6.40;0.77;;;;;;;4.76;75.80;100687.41;4962238;28;20051;-73
2023/01/11 03:59:14;;;;;;;5.30;0.80;;;;;;;4.77;75.53;100690.00;4956909;28;20065;-69
2023/01/11 04:01:43;;;;;;;6.47;0.68;;;;;;;4.78;75.71;100683.97;4960657;28;20043;-69
2023/01/11 04:04:10;;;;;;;9.80;1.27;;;;;;;4.79;75.65;100684.84;4963662;28;20049;-69
2023/01/11 04:06:38;;;;;;;4.57;0.88;;;;;;;4.79;75.77;100679.66;4958088;28;20515;-69
2023/01/11 04:09:05;;;;;;;6.40;1.27;;;;;;;4.78;75.31;100672.72;4965139;28;20105;-69
2023/01/11 04:11:32;;;;;;;5.82;0.82;;;;;;;4.74;75.86;100662.38;4960311;28;20047;-69
2023/01/11 04:14:00;;;;;;;8.25;0.60;;;;;;;4.73;75.57;100655.47;4965343;28;20054;-69
2023/01/11 04:16:27;;;;;;;6.05;1.08;;;;;;;4.76;75.65;100659.81;4963182;28;20062;-69
2023/01/11 04:18:55;;;;;;;6.68;0.70;;;;;;;4.74;75.56;100652.03;4966578;28;20051;-69
2023/01/11 04:21:22;;;;;;;9.60;2.60;;;;;;;4.74;75.47;100648.56;4964657;28;20610;-70
2023/01/11 04:23:50;;;;;;;10.80;0.73;;;;;;;4.73;75.45;100642.53;4964887;28;20045;-69
2023/01/11 04:26:17;;;;;;;9.35;0.82;;;;;;;4.65;75.49;100623.53;4963731;28;20046;-69
2023/01/11 04:28:44;;;;;;;3.97;0.93;;;;;;;4.74;75.52;100630.47;4965205;28;20053;-69
2023/01/11 04:31:11;;;;;;;5.30;0.73;;;;;;;4.74;75.58;100622.69;4961805;28;20062;-70
2023/01/11 04:33:38;;;;;;;4.40;0.50;;;;;;;4.74;75.54;100622.69;4965091;28;20046;-69
2023/01/11 04:36:08;;;;;;;4.63;0.90;;;;;;;4.73;75.66;100619.25;4963228;28;20745;-70
2023/01/11 04:38:36;;;;;;;11.75;0.80;;;;;;;4.68;75.61;100605.44;4966880;28;20055;-69
2023/01/11 04:43:47;;;;;;;5.18;0.65;;;;;;;4.75;75.72;100601.13;4931745;28;20063;-69
2023/01/11 04:46:14;;;;;;;7.90;1.20;;;;;;;4.71;75.95;100595.09;4960087;28;20054;-70
2023/01/11 04:48:41;;;;;;;9.73;1.02;;;;;;;4.72;75.75;100594.25;4961571;28;20063;-69
2023/01/11 04:51:10;;;;;;;7.45;0.82;;;;;;;4.72;76.03;100585.59;4962402;28;20051;-69
2023/01/11 04:53:37;;;;;;;8.13;0.82;;;;;;;4.77;75.93;100580.44;4963774;28;20058;-69
2023/01/11 04:56:05;;;;;;;4.85;0.82;;;;;;;4.77;75.73;100567.50;4965385;28;20082;-69
2023/01/11 04:58:35;;;;;;;12.25;1.25;;;;;;;4.77;75.91;100563.19;4965394;28;20047;-69
2023/01/11 05:01:08;;;;;;;9.45;1.33;;;;;;;4.78;76.01;100556.28;4964328;28;20047;-70
2023/01/11 05:03:35;;;;;;;4.20;1.33;;;;;;;4.77;75.95;100554.56;4963822;28;20145;-69
2023/01/11 05:06:02;;;;;;;4.80;0.88;;;;;;;4.79;76.30;100555.44;4963103;28;20043;-70
2023/01/11 05:08:31;;;;;;;6.55;1.33;;;;;;;4.79;76.16;100550.28;4966157;28;20054;-70
2023/01/11 05:11:00;;;;;;;3.83;1.08;;;;;;;4.77;76.24;100537.31;4964663;28;20062;-69
2023/01/11 05:13:41;;;;;;;10.88;1.30;;;;;;;4.79;76.01;100533.00;4963211;28;20047;-70
2023/01/11 05:16:09;;;;;;;4.53;1.35;;;;;;;4.81;76.28;100530.41;4965973;28;20043;-69
2023/01/11 05:18:36;;;;;;;5.60;1.25;;;;;;;4.81;76.20;100530.41;4962523;28;20415;-69
2023/01/11 05:21:05;;;;;;;10.02;1.35;;;;;;;4.81;76.11;100526.13;4963483;28;20054;-69
2023/01/11 05:23:34;;;;;;;11.43;1.15;;;;;;;4.82;76.41;100512.31;4962945;28;20043;-69
2023/01/11 05:26:02;;;;;;;7.65;1.85;;;;;;;4.83;76.27;100508.00;4962697;28;20514;-69
2023/01/11 05:28:29;;;;;;;6.13;1.30;;;;;;;4.85;76.31;100503.69;4966816;28;20042;-69
2023/01/11 05:30:55;;;;;;;9.02;2.08;;;;;;;4.84;76.35;100499.34;4959763;28;20782;-69
2023/01/11 05:33:22;;;;;;;8.05;1.70;;;;;;;4.86;76.36;100495.06;4961522;28;20051;-70
2023/01/11 05:35:49;;;;;;;7.72;0.88;;;;;;;4.86;76.38;100497.63;4960180;28;20054;-70
2023/01/11 05:38:16;;;;;;;11.10;1.77;;;;;;;4.87;76.36;100489.03;4957314;28;20047;-69
2023/01/11 05:40:44;;;;;;;9.23;1.00;;;;;;;4.87;76.41;100479.53;4959418;28;20050;-69
2023/01/11 05:43:11;;;;;;;5.43;0.82;;;;;;;4.88;76.34;100473.50;4961019;28;20043;-69
2023/01/11 05:45:37;;;;;;;3.67;0.60;;;;;;;4.90;76.71;100478.69;4959619;28;20077;-69
2023/01/11 05:48:04;;;;;;;10.23;1.48;;;;;;;4.92;76.42;100474.34;4962545;28;20062;-69
2023/01/11 05:50:31;;;;;;;8.05;1.48;;;;;;;4.87;76.32;100463.16;4960825;28;20063;-69
2023/01/11 05:52:58;;;;;;;9.70;0.75;;;;;;;4.85;76.24;100447.63;4962877;28;20062;-69
2023/01/11 05:55:24;;;;;;;16.13;1.58;;;;;;;4.92;76.11;100454.53;4961885;28;20051;-69
2023/01/11 05:57:52;;;;;;;6.03;1.10;;;;;;;4.92;76.19;100441.59;4961521;28;20059;-69
2023/01/11 06:00:20;;;;;;;11.77;1.08;;;;;;;4.95;76.30;100435.50;4960638;28;20047;-69
2023/01/11 06:02:47;;;;;;;6.32;0.95;;;;;;;4.95;76.17;100438.09;4961384;28;20047;-69
2023/01/11 06:05:14;;;;;;;6.82;1.02;;;;;;;4.96;75.97;100442.44;4958977;28;20055;-71
2023/01/11 06:07:41;;;;;;;7.93;1.10;;;;;;;4.95;76.24;100419.97;4960597;28;20051;-71
2023/01/11 06:10:09;;;;;;;11.43;1.10;;;;;;;4.97;75.93;100432.06;4962096;28;20059;-71
2023/01/11 06:12:36;;;;;;;6.68;1.17;;;;;;;4.99;76.01;100431.22;4961834;28;20050;-72
2023/01/11 06:15:05;;;;;;;8.70;2.22;;;;;;;4.99;76.01;100426.03;4947711;28;20055;-72
2023/01/11 06:17:31;;;;;;;7.43;1.02;;;;;;;4.99;75.94;100416.53;4956213;28;20058;-72
2023/01/11 06:19:58;;;;;;;5.50;0.90;;;;;;;5.00;75.72;100405.31;4959730;28;20495;-73
2023/01/11 06:22:25;;;;;;;7.43;0.95;;;;;;;5.02;75.79;100408.78;4963493;28;20542;-71
2023/01/11 06:24:52;;;;;;;7.95;0.85;;;;;;;5.02;75.84;100400.16;4960138;28;20055;-70
2023/01/11 06:27:19;;;;;;;7.20;0.95;;;;;;;5.02;75.66;100403.59;4960085;28;20043;-71
2023/01/11 06:29:46;;;;;;;16.98;1.20;;;;;;;5.03;75.53;100388.91;4960691;28;20051;-70
2023/01/11 06:32:14;;;;;;;9.52;1.40;;;;;;;5.03;75.63;100389.78;4961421;28;20047;-70
2023/01/11 06:34:41;;;;;;;8.07;0.90;;;;;;;5.02;75.36;100382.03;4962424;28;20062;-70
2023/01/11 06:37:07;;;;;;;6.35;1.90;;;;;;;5.03;75.43;100382.00;4958985;28;20523;-70
2023/01/11 06:39:34;;;;;;;7.95;1.00;;;;;;;5.03;75.07;100369.06;4960154;28;20051;-70
2023/01/11 06:42:01;;;;;;;8.32;1.20;;;;;;;5.04;75.24;100354.38;4960306;28;20051;-70
2023/01/11 06:44:28;;;;;;;10.88;1.05;;;;;;;5.03;75.22;100343.19;4964517;28;20057;-70
2023/01/11 06:46:55;;;;;;;7.65;3.08;;;;;;;5.04;75.16;100344.91;4961634;28;20043;-70
2023/01/11 06:49:23;;;;;;;7.60;1.20;;;;;;;5.05;75.07;100340.59;4961886;28;20046;-69
2023/01/11 06:51:50;;;;;;;7.65;0.90;;;;;;;5.03;74.98;100335.41;4959296;28;20055;-69
2023/01/11 06:54:20;;;;;;;7.35;2.08;;;;;;;5.04;75.12;100318.16;4960984;28;20043;-69
2023/01/11 06:56:47;;;;;;;5.10;0.70;;;;;;;5.04;75.00;100329.41;4957824;28;20043;-69
2023/01/11 06:59:14;;;;;;;17.60;12.73;;;;;;;5.05;74.91;100317.31;4959032;28;20049;-69
2023/01/11 07:01:41;;;;;;;9.50;1.73;;;;;;;5.05;74.81;100319.88;4958044;28;20058;-68
2023/01/11 07:04:07;;;;;;;5.63;1.20;;;;;;;5.00;74.63;100299.19;4959954;28;20047;-69
2023/01/11 07:06:36;;;;;;;13.10;1.40;;;;;;;5.05;74.84;100307.81;4957827;28;20051;-69
2023/01/11 07:09:03;;;;;;;10.25;1.67;;;;;;;5.06;74.90;100290.53;4956985;28;20054;-69
2023/01/11 07:11:33;;;;;;;5.05;0.52;;;;;;;5.03;74.66;100285.38;4956791;28;20392;-69
2023/01/11 07:14:00;;;;;;;10.65;1.58;;;;;;;5.06;74.88;100282.78;4959454;28;20043;-68
2023/01/11 07:16:27;;;;;;;4.70;0.70;;;;;;;5.06;75.01;100280.19;4958238;28;20054;-69
2023/01/11 07:18:54;;;;;;;6.50;1.15;;;;;;;5.07;74.30;100272.44;4958779;28;20051;-68
2023/01/11 07:21:20;;;;;;;6.32;1.10;;;;;;;5.07;74.66;100262.06;4959081;28;20469;-69
2023/01/11 07:23:49;;;;;;;3.80;0.52;;;;;;;5.08;74.43;100262.94;4956635;28;20039;-69
2023/01/11 07:26:16;;;;;;;9.02;1.15;;;;;;;5.07;74.56;100263.81;4957298;28;20054;-69
2023/01/11 07:28:43;;;;;;;7.72;0.93;;;;;;;5.08;74.14;100257.75;4955949;28;20133;-69
2023/01/11 07:31:10;;;;;;;9.93;1.67;;;;;;;5.07;74.05;100227.56;4952431;28;20078;-69
2023/01/11 07:33:37;;;;;;;8.60;1.10;;;;;;;5.08;74.11;100253.44;4957243;28;20039;-69
2023/01/11 07:36:05;;;;;;;6.13;0.93;;;;;;;5.09;73.96;100264.63;4960295;28;20045;-69
2023/01/11 07:38:32;;;;;;;2.42;0.70;;;;;;;5.10;73.76;100217.19;4958965;28;20074;-69
2023/01/11 07:43:10;;;;;;;1.23;0.40;;;;;;;5.09;73.62;100249.09;4957757;28;20058;-69
2023/01/11 07:43:46;;;;;;;7.20;1.17;;;;;;;5.07;73.81;100225.81;4957593;28;20054;-69
2023/01/11 07:46:13;;;;;;;10.90;0.90;;;;;;;5.08;73.68;100240.47;4958532;28;20047;-69
2023/01/11 07:48:39;;;;;;;8.98;1.45;;;;;;;5.07;73.62;100218.06;4955856;28;20047;-69
2023/01/11 07:51:06;;;;;;;13.52;1.38;;;;;;;5.07;73.85;100223.25;4958111;28;20054;-69
2023/01/11 07:53:33;;;;;;;4.93;1.23;;;;;;;5.07;73.96;100225.81;4961882;28;20053;-69
2023/01/11 07:56:01;;;;;;;8.98;1.60;;;;;;;5.06;74.05;100218.91;4960097;28;20042;-68
2023/01/11 07:58:28;;;;;;;7.35;0.98;;;;;;;5.06;74.31;100237.03;4960914;28;20058;-69
2023/01/11 08:00:55;;;;;;;7.55;1.00;;;;;;;5.04;74.51;100214.59;4960172;28;20047;-68
2023/01/11 08:03:22;;;;;;;10.40;1.40;;;;;;;5.04;74.46;100225.84;4962311;28;20058;-69
2023/01/11 08:05:51;;;;;;;9.55;1.25;;;;;;;5.03;74.84;100208.56;4961178;28;20051;-69
2023/01/11 08:08:18;;;;;;;4.78;0.95;;;;;;;5.02;74.97;100203.41;4961271;28;20769;-71
2023/01/11 08:10:44;;;;;;;3.60;0.95;;;;;;;5.01;75.05;100199.97;4965839;28;20054;-68
2023/01/11 08:15:58;;;;;;;2.83;0.60;;;;;;;4.92;75.21;100179.28;4964546;28;20046;-68
2023/01/11 08:18:25;;;;;;;7.07;0.80;;;;;;;4.97;75.27;100187.91;4967282;28;20053;-69
2023/01/11 08:20:52;;;;;;;4.07;0.90;;;;;;;4.97;75.31;100188.75;4961697;28;20210;-68
2023/01/11 08:23:19;;;;;;;4.35;0.82;;;;;;;4.95;75.40;100187.03;4963726;28;20055;-69
2023/01/11 08:25:46;;;;;;;12.85;1.17;;;;;;;4.96;75.54;100181.00;4956869;28;20047;-67
2023/01/11 08:28:14;;;;;;;6.00;0.85;;;;;;;4.95;75.60;100195.69;4964036;28;20051;-67
2023/01/11 08:30:43;;;;;;;4.00;0.65;;;;;;;4.94;75.65;100175.84;4962202;28;20521;-67
2023/01/11 08:33:10;;;;;;;4.43;0.57;;;;;;;4.92;75.69;100185.34;4962027;28;20051;-67
2023/01/11 08:35:38;;;;;;;3.90;0.52;;;;;;;4.91;75.65;100177.59;4958322;28;20058;-68
2023/01/11 08:38:05;;;;;;;4.30;0.60;;;;;;;4.90;75.74;100175.88;4961292;28;20051;-67
2023/01/11 08:40:32;;;;;;;4.30;0.65;;;;;;;4.89;75.81;100166.38;4961673;28;20503;-66
2023/01/11 08:42:59;;;;;;;3.75;0.57;;;;;;;4.87;75.75;100165.53;4962712;28;20053;-66
2023/01/11 08:45:28;;;;;;;4.28;0.80;;;;;;;4.87;75.73;100161.22;4964936;28;20054;-67
2023/01/11 08:47:55;;;;;;;1.98;0.47;;;;;;;4.82;75.62;100144.84;4962273;28;20051;-67
2023/01/11 08:50:22;;;;;;;6.07;0.60;;;;;;;4.85;75.92;100162.09;4963104;28;20045;-67
2023/01/11 08:52:50;;;;;;;4.50;0.68;;;;;;;4.82;75.83;100157.78;4961083;28;20043;-67
2023/01/11 08:55:17;;;;;;;4.55;0.75;;;;;;;4.85;75.80;100159.50;4960188;28;20047;-67
2023/01/11 08:57:44;;;;;;;1.35;0.65;;;;;;;4.85;75.89;100146.56;4957182;28;20062;-66
2023/01/11 09:00:12;;;;;;;2.10;0.40;;;;;;;4.83;75.75;100145.69;4963398;28;20062;-67
2023/01/11 09:02:40;;;;;;;3.03;0.50;;;;;;;4.82;75.87;100136.22;4960556;28;20820;-67
2023/01/11 09:05:08;;;;;;;6.78;0.65;;;;;;;4.79;75.64;100134.50;4964050;28;20049;-67
2023/01/11 09:07:35;;;;;;;0.77;0.30;;;;;;;4.79;76.06;100120.72;4961499;28;20043;-68
2023/01/11 09:10:01;;;;;;;7.28;0.30;;;;;;;4.77;75.93;100123.31;4958523;28;20047;-67
2023/01/11 09:12:28;;;;;;;1.52;0.77;;;;;;;4.74;76.00;100093.13;4956685;28;20047;-67
2023/01/11 09:14:55;;;;;;;1.65;0.50;;;;;;;4.73;75.73;100096.59;4958432;28;20053;-68
2023/01/11 09:17:22;;;;;;;5.13;0.55;;;;;;;4.71;76.13;100095.75;4958802;28;20059;-68
2023/01/11 09:19:50;;;;;;;1.83;0.50;;;;;;;4.70;76.22;100091.44;4959754;28;20054;-68
2023/01/11 09:22:17;;;;;;;3.20;0.68;;;;;;;4.70;76.18;100091.44;4963023;28;20051;-67
2023/01/11 09:24:44;;;;;;;1.98;0.30;;;;;;;4.70;76.38;100085.41;4963080;28;20039;-68
2023/01/11 09:27:11;;;;;;;4.63;0.85;;;;;;;4.69;75.94;100099.19;4959550;28;20061;-67
2023/01/11 09:29:38;;;;;;;2.97;0.45;;;;;;;4.66;76.12;100081.97;4963177;28;20066;-68
2023/01/11 09:32:05;;;;;;;6.38;0.57;;;;;;;4.68;76.11;100072.47;4961978;28;20050;-68
2023/01/11 09:34:32;;;;;;;6.10;1.40;;;;;;;4.67;76.30;100082.84;4961839;28;20042;-67
2023/01/11 09:37:02;;;;;;;0.90;0.30;;;;;;;4.67;76.19;100072.50;4958508;28;20047;-67
2023/01/11 09:39:29;;;;;;;5.38;0.30;;;;;;;4.65;76.05;100075.09;4962500;28;20058;-67
2023/01/11 09:42:25;;;;;;;0.63;0.28;;;;;;;4.65;76.34;100066.47;4958778;28;20055;-66
2023/01/11 09:44:55;;;;;;;;;;;;;;;4.62;76.20;100072.50;4959048;28;20038;-66
2023/01/11 09:47:31;;;;;;;2.80;0.52;;;;;;;4.60;76.26;100069.06;4956606;28;19926;-67
2023/01/11 09:50:02;;;;;;;2.65;0.30;;;;;;;4.57;76.48;100066.50;4963353;28;20051;-68
2023/01/11 09:52:38;;;;;;;7.47;0.68;;;;;;;4.58;76.30;100052.72;4961119;28;20054;-67
2023/01/11 09:55:06;;;;;;;5.82;0.75;;;;;;;4.59;76.55;100051.84;4957885;28;20086;-67
2023/01/11 09:57:46;;;;;;;3.50;0.47;;;;;;;4.58;76.15;100050.13;4962196;28;20090;-67
2023/01/11 10:00:21;;;;;;;3.03;0.50;;;;;;;4.58;76.72;100050.13;4956166;28;20055;-66
2023/01/11 10:03:11;;;;;;;3.50;0.55;;;;;;;4.59;76.54;100051.84;4962485;28;20511;-67
2023/01/11 10:05:50;;;;;;;3.67;0.60;;;;;;;4.59;76.83;100038.91;4962685;28;20076;-67
2023/01/11 10:08:38;;;;;;;6.07;0.85;;;;;;;4.60;76.72;100050.97;4956493;28;20083;-67
2023/01/11 10:11:19;;;;;;;4.55;0.73;;;;;;;4.60;76.63;100022.50;4960316;28;20471;-67
2023/01/11 10:13:54;;;;;;;9.38;0.68;;;;;;;4.59;76.73;100019.94;4962119;28;20047;-68
2023/01/11 10:16:33;;;;;;;0.45;0.22;;;;;;;4.60;77.06;100032.00;4960663;28;20609;-67
2023/01/11 10:19:07;;;;;;;7.75;1.63;;;;;;;4.59;76.91;100051.00;4957402;28;20587;-67
2023/01/11 10:21:41;;;;;;;11.63;1.42;;;;;;;4.60;77.04;100025.09;4962583;28;20050;-66
2023/01/11 10:24:19;;;;;;;5.25;0.50;;;;;;;4.59;76.95;100020.81;4955628;28;20132;-66
2023/01/11 10:26:50;;;;;;;2.40;0.43;;;;;;;4.61;77.25;100023.34;4961109;28;20047;-67
2023/01/11 10:29:38;;;;;;;4.35;0.35;;;;;;;4.51;77.06;100018.25;4962845;28;20038;-66
2023/01/11 10:32:32;;;;;;;3.10;0.73;;;;;;;4.62;77.10;100009.56;4959344;28;20042;-66
2023/01/11 10:35:30;;;;;;;3.13;0.30;;;;;;;4.60;77.19;100004.41;4959695;28;20042;-66
2023/01/11 10:38:21;;;;;;;4.50;1.02;;;;;;;4.61;77.26;100008.72;4959456;28;20519;-68
2023/01/11 10:41:05;;;;;;;5.05;0.63;;;;;;;4.61;77.17;100006.13;4959861;28;20048;-67
2023/01/11 10:43:34;;;;;;;5.05;0.50;;;;;;;4.62;77.49;100005.25;4957119;28;20061;-67
2023/01/11 10:46:07;;;;;;;1.63;0.40;;;;;;;4.62;77.42;100002.66;4962221;28;20058;-67
2023/01/11 10:48:37;;;;;;;6.70;0.77;;;;;;;4.63;77.77;99996.63;4960678;28;20043;-67
2023/01/11 10:51:13;;;;;;;8.65;0.88;;;;;;;4.64;77.56;100003.53;4951932;28;20410;-66
2023/01/11 10:53:52;;;;;;;4.28;0.77;;;;;;;4.64;77.75;99988.00;4839804;28;30360;-66
2023/01/11 10:56:28;;;;;;;6.82;0.80;;;;;;;4.66;77.82;99996.59;4960705;28;20101;-66
2023/01/11 10:59:17;;;;;;;1.58;0.65;;;;;;;4.67;77.81;99993.16;4958121;28;20047;-66
2023/01/11 11:01:59;;;;;;;4.45;0.43;;;;;;;4.68;77.90;99986.25;4961198;28;20130;-66
2023/01/11 11:04:39;;;;;;;6.57;0.70;;;;;;;4.69;78.08;99970.69;4961839;28;20058;-66
2023/01/11 11:07:13;;;;;;;14.40;2.72;;;;;;;4.69;77.77;99981.03;4958597;28;20053;-66
2023/01/11 11:09:51;;;;;;;4.57;0.98;;;;;;;4.69;78.09;99950.00;4959658;28;20054;-66
2023/01/11 11:12:23;;;;;;;6.05;1.65;;;;;;;4.71;78.18;99968.97;4959626;28;20512;-66
2023/01/11 11:14:58;;;;;;;4.93;0.73;;;;;;;4.72;77.94;99962.94;4956132;28;20051;-66
2023/01/11 11:17:27;;;;;;;5.00;1.60;;;;;;;4.74;78.36;99962.91;4956448;28;20641;-66
2023/01/11 11:19:54;;;;;;;3.20;0.52;;;;;;;4.74;78.11;99956.00;4953200;28;20051;-66
2023/01/11 11:22:21;;;;;;;4.82;0.70;;;;;;;4.76;78.10;99956.00;4961237;28;20046;-66
2023/01/11 11:24:53;;;;;;;6.07;2.08;;;;;;;4.77;78.21;99943.94;4956710;28;20170;-66
2023/01/11 11:27:27;;;;;;;1.60;0.80;;;;;;;4.76;78.30;99953.41;4955977;28;20101;-66
2023/01/11 11:29:55;;;;;;;6.03;0.55;;;;;;;4.79;78.31;99949.97;4949873;28;20496;-66
2023/01/11 11:32:29;;;;;;;1.52;0.43;;;;;;;4.79;78.17;99955.13;4940139;28;20058;-66
2023/01/11 11:34:56;;;;;;;3.88;0.55;;;;;;;4.81;78.17;99968.88;4957085;28;20507;-66
2023/01/11 11:37:26;;;;;;;2.78;0.40;;;;;;;4.80;78.52;99938.72;4960300;28;20079;-67
2023/01/11 11:39:54;;;;;;;3.67;0.50;;;;;;;4.81;78.18;99943.91;4959290;28;20043;-67
2023/01/11 11:42:22;;;;;;;4.57;0.65;;;;;;;4.82;78.29;99949.94;4956461;28;20058;-67
2023/01/11 11:45:15;;;;;;;3.83;1.35;;;;;;;4.67;78.31;99914.69;4959265;28;20054;-67
2023/01/11 11:47:43;;;;;;;1.58;0.88;;;;;;;4.85;78.31;99940.41;4953983;28;20055;-67
2023/01/11 11:50:25;;;;;;;6.68;0.52;;;;;;;4.85;78.40;99934.38;4956926;28;20075;-68
2023/01/11 11:53:00;;;;;;;9.25;1.40;;;;;;;4.85;78.25;99935.22;4958639;28;20047;-68
2023/01/11 11:55:30;;;;;;;3.53;0.60;;;;;;;4.74;78.29;99912.03;4959955;28;20058;-68
2023/01/11 11:58:03;;;;;;;4.22;0.50;;;;;;;4.88;78.43;99918.81;4963603;28;20075;-69
2023/01/11 12:00:32;;;;;;;7.18;0.80;;;;;;;4.88;78.45;99924.84;4957737;28;20043;-68
2023/01/11 12:03:05;;;;;;;4.28;0.73;;;;;;;4.89;78.65;99926.56;4961160;28;20055;-68
2023/01/11 12:05:33;;;;;;;2.55;0.50;;;;;;;4.91;78.41;99921.38;4960760;28;20059;-68